Time;durP1;ratioP1;P1;durP2;ratioP2;P2;SDS_P1;SDS_P2;PMS_P1;PMS_P2;Temp;Humidity;BMP_temperature;BMP_pressure;BME280_temperature;BME280_humidity;BME280_pressure;Samples;Min_cycle;Max_cycle;Signal;HPM_P1;HPM_P2
2022/04/27 00:01:43;;;;;;;;;;;9.10;76.20;;;;;;5057999;28;19921;-84
2022/04/27 00:04:08;;;;;;;;;;;9.10;76.70;;;;;;5046846;28;19951;-87
2022/04/27 00:06:34;;;;;;;;;;;9.00;75.40;;;;;;5042603;28;21539;-85
2022/04/27 00:08:59;;;;;;;;;;;9.10;75.90;;;;;;5033336;28;19917;-85
2022/04/27 00:11:25;;;;;;;;;;;9.00;76.10;;;;;;5035399;28;19963;-84
2022/04/27 00:13:50;;;;;;;;;;;9.00;75.80;;;;;;5047659;28;20423;-85
2022/04/27 00:16:16;;;;;;;;;;;8.90;76.70;;;;;;5031583;28;19913;-83
2022/04/27 00:18:41;;;;;;;;;;;8.80;77.00;;;;;;5030508;28;19939;-83
2022/04/27 00:21:07;;;;;;;;;;;9.00;75.70;;;;;;5031156;28;19914;-85
2022/04/27 00:23:34;;;;;;;;;;;8.90;75.80;;;;;;5030650;28;19933;-86
2022/04/27 00:25:59;;;;;;;;;;;8.90;76.00;;;;;;5030569;28;19917;-84
2022/04/27 00:28:25;;;;;;;;;;;8.80;76.20;;;;;;5030679;28;20207;-84
2022/04/27 00:30:51;;;;;;;;;;;8.80;76.70;;;;;;5032160;28;19966;-85
2022/04/27 00:33:16;;;;;;;;;;;8.80;76.30;;;;;;5046075;28;19924;-83
2022/04/27 00:35:42;;;;;;;;;;;8.70;76.10;;;;;;5031150;28;19924;-85
2022/04/27 00:38:07;;;;;;;;;;;8.70;75.80;;;;;;5047733;28;19917;-84
2022/04/27 00:40:33;;;;;;;;;;;8.60;75.70;;;;;;5035870;28;19913;-84
2022/04/27 00:42:58;;;;;;;;;;;8.50;76.40;;;;;;5052481;28;19913;-83
2022/04/27 00:45:24;;;;;;;;;;;8.60;76.50;;;;;;5035408;28;19932;-85
2022/04/27 00:47:49;;;;;;;;;;;8.70;76.80;;;;;;5047326;28;19917;-86
2022/04/27 00:50:15;;;;;;;;;;;8.80;75.50;;;;;;5030619;28;19917;-83
2022/04/27 00:52:40;;;;;;;;;;;8.70;75.70;;;;;;5046697;28;20021;-85
2022/04/27 00:55:06;;;;;;;;;;;8.70;76.20;;;;;;5032416;28;19913;-86
2022/04/27 00:57:33;;;;;;;;;;;8.70;77.10;;;;;;5033862;28;19917;-85
2022/04/27 00:59:58;;;;;;;;;;;8.80;77.20;;;;;;5050379;28;19913;-85
2022/04/27 01:02:24;;;;;;;;;;;8.80;76.50;;;;;;5036108;28;20329;-87
2022/04/27 01:04:49;;;;;;;;;;;8.70;75.80;;;;;;5032144;28;19924;-84
2022/04/27 01:07:15;;;;;;;;;;;8.60;75.80;;;;;;5037056;28;19917;-85
2022/04/27 01:09:40;;;;;;;;;;;8.90;76.40;;;;;;5050177;28;19959;-84
2022/04/27 01:12:06;;;;;;;;;;;8.80;76.00;;;;;;5034808;28;19917;-86
2022/04/27 01:14:41;;;;;;;;;;;8.80;76.40;;;;;;5031570;28;19921;-85
2022/04/27 01:17:06;;;;;;;;;;;8.60;76.30;;;;;;5030740;28;19917;-85
2022/04/27 01:19:32;;;;;;;;;;;8.50;76.50;;;;;;5033153;28;19952;-85
2022/04/27 01:21:58;;;;;;;;;;;8.40;77.20;;;;;;5035404;28;19913;-85
2022/04/27 01:24:26;;;;;;;;;;;8.30;77.50;;;;;;5035886;28;19913;-85
2022/04/27 01:26:53;;;;;;;;;;;8.50;77.50;;;;;;5033002;28;19921;-83
2022/04/27 01:29:19;;;;;;;;;;;8.60;78.10;;;;;;5029178;28;20436;-84
2022/04/27 01:31:44;;;;;;;;;;;8.70;77.10;;;;;;5035315;28;20019;-84
2022/04/27 01:34:10;;;;;;;;;;;8.60;77.50;;;;;;5033662;28;19921;-85
2022/04/27 01:36:35;;;;;;;;;;;8.70;76.70;;;;;;5035053;28;19920;-85
2022/04/27 01:39:01;;;;;;;;;;;8.60;77.80;;;;;;5036432;28;19917;-84
2022/04/27 01:41:27;;;;;;;;;;;8.50;78.00;;;;;;5037103;28;19913;-84
2022/04/27 01:43:52;;;;;;;;;;;8.30;78.40;;;;;;5035952;28;19936;-84
2022/04/27 01:46:18;;;;;;;;;;;8.20;78.50;;;;;;5037446;28;19924;-85
2022/04/27 01:48:43;;;;;;;;;;;8.20;79.00;;;;;;5048663;28;19918;-85
2022/04/27 01:51:09;;;;;;;;;;;8.30;79.70;;;;;;5037652;28;19917;-84
2022/04/27 01:56:19;;;;;;;;;;;8.40;78.70;;;;;;5043202;28;20426;-84
2022/04/27 01:58:45;;;;;;;;;;;8.60;77.60;;;;;;5043844;28;20152;-84
2022/04/27 02:01:11;;;;;;;;;;;8.50;77.90;;;;;;5042067;28;20372;-83
2022/04/27 02:03:37;;;;;;;;;;;8.60;77.60;;;;;;5036692;28;19920;-86
2022/04/27 02:06:03;;;;;;;;;;;8.50;78.20;;;;;;5035100;28;20036;-86
2022/04/27 02:08:28;;;;;;;;;;;8.60;77.20;;;;;;5035326;28;19928;-86
2022/04/27 02:10:54;;;;;;;;;;;8.70;77.30;;;;;;5034366;28;19913;-85
2022/04/27 02:13:20;;;;;;;;;;;8.70;77.30;;;;;;5037031;28;19939;-86
2022/04/27 02:15:46;;;;;;;;;;;8.50;77.50;;;;;;5050571;28;19971;-83
2022/04/27 02:18:11;;;;;;;;;;;8.40;78.20;;;;;;5035408;28;19939;-86
2022/04/27 02:20:36;;;;;;;;;;;8.40;79.00;;;;;;5036569;28;19940;-85
2022/04/27 02:23:02;;;;;;;;;;;8.40;78.10;;;;;;5032255;28;19917;-85
2022/04/27 02:25:28;;;;;;;;;;;8.50;77.20;;;;;;5031877;28;19940;-86
2022/04/27 02:27:53;;;;;;;;;;;8.40;76.30;;;;;;5045858;28;19917;-85
2022/04/27 02:30:19;;;;;;;;;;;8.30;76.90;;;;;;5029592;28;19917;-86
2022/04/27 02:32:45;;;;;;;;;;;8.10;77.50;;;;;;5053402;28;19913;-85
2022/04/27 02:35:11;;;;;;;;;;;8.20;77.60;;;;;;5038759;28;19936;-86
2022/04/27 02:37:37;;;;;;;;;;;8.30;77.20;;;;;;5047900;28;19924;-83
2022/04/27 02:40:04;;;;;;;;;;;8.20;77.30;;;;;;5064444;28;19917;-82
2022/04/27 02:42:32;;;;;;;;;;;8.10;77.00;;;;;;5050530;28;19918;-84
2022/04/27 02:44:57;;;;;;;;;;;8.00;78.00;;;;;;5060343;28;19989;-85
2022/04/27 02:47:23;;;;;;;;;;;8.00;77.50;;;;;;5048004;28;19922;-83
2022/04/27 02:52:33;;;;;;;;;;;8.00;78.10;;;;;;5039656;28;20245;-83
2022/04/27 02:54:58;;;;;;;;;;;8.00;77.50;;;;;;5063216;28;19909;-85
2022/04/27 02:57:24;;;;;;;;;;;8.10;77.70;;;;;;5052792;28;19909;-85
2022/04/27 02:59:49;;;;;;;;;;;8.00;78.40;;;;;;5055685;28;19924;-84
2022/04/27 03:02:15;;;;;;;;;;;8.00;78.60;;;;;;5045251;28;19924;-85
2022/04/27 03:04:41;;;;;;;;;;;7.90;78.80;;;;;;5063194;28;19947;-86
2022/04/27 03:07:07;;;;;;;;;;;8.10;77.80;;;;;;5047916;28;19971;-83
2022/04/27 03:09:32;;;;;;;;;;;8.00;78.50;;;;;;5048310;28;19913;-83
2022/04/27 03:11:59;;;;;;;;;;;8.00;79.10;;;;;;5045874;28;21583;-82
2022/04/27 03:14:24;;;;;;;;;;;8.00;77.90;;;;;;5067893;28;19944;-83
2022/04/27 03:16:52;;;;;;;;;;;8.00;78.40;;;;;;5048780;28;19927;-83
2022/04/27 03:19:18;;;;;;;;;;;8.00;78.60;;;;;;5045667;28;19971;-85
2022/04/27 03:21:43;;;;;;;;;;;8.10;78.20;;;;;;5046752;28;19928;-84
2022/04/27 03:24:09;;;;;;;;;;;8.00;79.50;;;;;;5039058;28;19913;-85
2022/04/27 03:26:34;;;;;;;;;;;7.90;79.80;;;;;;5034062;28;19921;-85
2022/04/27 03:29:00;;;;;;;;;;;7.80;80.00;;;;;;5042238;28;20699;-85
2022/04/27 03:31:25;;;;;;;;;;;7.90;79.50;;;;;;5032723;28;19928;-84
2022/04/27 03:33:51;;;;;;;;;;;8.00;78.70;;;;;;5035151;28;19920;-85
2022/04/27 03:36:17;;;;;;;;;;;7.90;79.40;;;;;;5032426;28;20032;-85
2022/04/27 03:38:48;;;;;;;;;;;7.80;79.70;;;;;;5065331;28;19912;-85
2022/04/27 03:41:14;;;;;;;;;;;7.90;79.30;;;;;;5055584;28;19994;-84
2022/04/27 03:43:40;;;;;;;;;;;7.70;79.60;;;;;;5051828;28;19936;-84
2022/04/27 03:46:05;;;;;;;;;;;7.60;80.20;;;;;;5059201;28;20017;-85
2022/04/27 03:48:31;;;;;;;;;;;7.50;80.90;;;;;;5030162;28;19926;-85
2022/04/27 03:50:56;;;;;;;;;;;7.50;80.90;;;;;;5033209;28;20404;-86
2022/04/27 03:53:22;;;;;;;;;;;7.40;81.60;;;;;;5035659;28;19949;-87
2022/04/27 03:55:47;;;;;;;;;;;7.40;81.50;;;;;;5033051;28;19913;-86
2022/04/27 03:58:13;;;;;;;;;;;7.40;81.30;;;;;;5047359;28;19918;-87
2022/04/27 04:00:38;;;;;;;;;;;7.40;81.00;;;;;;5028983;28;19967;-86
2022/04/27 04:03:04;;;;;;;;;;;7.30;81.00;;;;;;5030306;28;20277;-86
2022/04/27 04:05:30;;;;;;;;;;;7.40;80.70;;;;;;5034039;28;19913;-85
2022/04/27 04:07:56;;;;;;;;;;;7.50;81.20;;;;;;5035305;28;19921;-86
2022/04/27 04:10:21;;;;;;;;;;;7.40;81.70;;;;;;5033497;28;19913;-85
2022/04/27 04:12:47;;;;;;;;;;;7.60;80.80;;;;;;5038994;28;20010;-85
2022/04/27 04:15:13;;;;;;;;;;;7.60;81.50;;;;;;5036969;28;19913;-85
2022/04/27 04:17:45;;;;;;;;;;;7.60;80.70;;;;;;5044796;28;19928;-88
2022/04/27 04:20:14;;;;;;;;;;;7.40;81.30;;;;;;5031392;28;19924;-87
2022/04/27 04:22:40;;;;;;;;;;;7.60;80.50;;;;;;5047472;28;19913;-87
2022/04/27 04:30:34;;;;;;;;;;;7.30;80.40;;;;;;5030852;28;19924;-88
2022/04/27 04:32:59;;;;;;;;;;;7.20;80.70;;;;;;5031444;28;19917;-87
2022/04/27 04:35:25;;;;;;;;;;;7.10;80.80;;;;;;5028983;28;19917;-86
2022/04/27 04:37:50;;;;;;;;;;;7.10;81.20;;;;;;5028505;28;19929;-87
2022/04/27 04:40:16;;;;;;;;;;;7.30;80.60;;;;;;5031679;28;19917;-87
2022/04/27 04:42:41;;;;;;;;;;;7.10;80.50;;;;;;5030624;28;19932;-86
2022/04/27 04:45:07;;;;;;;;;;;7.20;81.00;;;;;;5030795;28;19917;-84
2022/04/27 04:47:33;;;;;;;;;;;7.20;80.90;;;;;;5028065;28;19924;-87
2022/04/27 04:49:58;;;;;;;;;;;7.20;81.00;;;;;;5027983;28;19924;-86
2022/04/27 04:52:24;;;;;;;;;;;7.20;80.50;;;;;;5031641;28;20027;-86
2022/04/27 04:54:49;;;;;;;;;;;7.00;80.80;;;;;;5029413;28;19921;-85
2022/04/27 04:57:15;;;;;;;;;;;6.90;81.70;;;;;;5021706;28;20022;-85
2022/04/27 04:59:40;;;;;;;;;;;6.80;82.10;;;;;;5028335;28;19979;-83
2022/04/27 05:02:06;;;;;;;;;;;6.80;82.70;;;;;;5031815;28;19960;-83
2022/04/27 05:04:31;;;;;;;;;;;6.70;83.20;;;;;;5028950;28;20349;-85
2022/04/27 05:06:57;;;;;;;;;;;6.70;83.70;;;;;;5044321;28;19948;-85
2022/04/27 05:09:22;;;;;;;;;;;6.80;83.50;;;;;;5035534;28;19990;-85
2022/04/27 05:11:48;;;;;;;;;;;7.10;82.60;;;;;;5045249;28;19913;-84
2022/04/27 05:14:13;;;;;;;;;;;7.30;81.40;;;;;;5033762;28;19913;-83
2022/04/27 05:16:39;;;;;;;;;;;7.20;82.10;;;;;;5045943;28;19917;-82
2022/04/27 05:19:05;;;;;;;;;;;7.50;81.00;;;;;;5035147;28;19944;-85
2022/04/27 05:21:30;;;;;;;;;;;7.60;80.20;;;;;;5039304;28;19921;-88
2022/04/27 05:23:56;;;;;;;;;;;7.70;79.80;;;;;;5030092;28;20008;-84
2022/04/27 05:26:22;;;;;;;;;;;7.70;79.80;;;;;;5032574;28;19917;-84
2022/04/27 05:34:16;;;;;;;;;;;7.70;80.10;;;;;;5028547;28;19920;-85
2022/04/27 05:36:42;;;;;;;;;;;7.60;80.20;;;;;;5030004;28;19921;-84
2022/04/27 05:39:07;;;;;;;;;;;7.60;80.80;;;;;;5027261;28;19983;-85
2022/04/27 05:41:34;;;;;;;;;;;7.80;80.30;;;;;;5027537;28;19913;-82
2022/04/27 05:44:02;;;;;;;;;;;8.10;80.60;;;;;;5028506;28;19928;-84
2022/04/27 05:46:28;;;;;;;;;;;8.70;78.00;;;;;;5027658;28;19975;-81
2022/04/27 05:48:54;;;;;;;;;;;9.00;78.30;;;;;;5030282;28;19914;-82
2022/04/27 05:51:19;;;;;;;;;;;9.40;76.70;;;;;;5027736;28;19966;-81
2022/04/27 05:53:45;;;;;;;;;;;10.00;73.80;;;;;;5045541;28;19913;-82
2022/04/27 05:56:10;;;;;;;;;;;10.10;72.20;;;;;;5022114;28;19956;-82
2022/04/27 05:58:36;;;;;;;;;;;10.50;70.60;;;;;;5031910;28;19913;-82
2022/04/27 06:01:01;;;;;;;;;;;10.80;69.60;;;;;;5023208;28;21448;-84
2022/04/27 06:03:27;;;;;;;;;;;10.70;68.90;;;;;;5023384;28;20027;-83
2022/04/27 06:05:52;;;;;;;;;;;10.40;71.40;;;;;;5030111;28;19964;-80
2022/04/27 06:08:18;;;;;;;;;;;10.60;69.90;;;;;;5021764;28;20001;-83
2022/04/27 06:10:43;;;;;;;;;;;10.90;70.60;;;;;;5037897;28;19913;-83
2022/04/27 06:13:09;;;;;;;;;;;11.50;68.70;;;;;;5023033;28;19917;-83
2022/04/27 06:15:34;;;;;;;;;;;11.60;67.10;;;;;;5021227;28;19921;-84
2022/04/27 06:18:00;;;;;;;;;;;11.50;67.90;;;;;;5026221;28;19956;-83
2022/04/27 06:20:25;;;;;;;;;;;11.30;67.90;;;;;;5029636;28;19924;-83
2022/04/27 06:22:51;;;;;;;;;;;11.10;67.90;;;;;;5030904;28;19920;-82
2022/04/27 06:25:18;;;;;;;;;;;10.60;69.50;;;;;;5033400;28;19913;-82
2022/04/27 06:27:44;;;;;;;;;;;10.20;70.70;;;;;;5043620;28;19924;-82
2022/04/27 06:30:10;;;;;;;;;;;10.00;72.00;;;;;;5033797;28;20312;-78
2022/04/27 06:32:35;;;;;;;;;;;9.70;73.90;;;;;;5040400;28;20337;-80
2022/04/27 06:35:02;;;;;;;;;;;9.60;74.80;;;;;;5048668;28;19917;-79
2022/04/27 06:37:27;;;;;;;;;;;9.60;74.20;;;;;;5043466;28;20538;-78
2022/04/27 06:39:53;;;;;;;;;;;9.50;74.80;;;;;;5039117;28;19920;-80
2022/04/27 06:42:21;;;;;;;;;;;9.30;75.10;;;;;;5047339;28;19952;-80
2022/04/27 06:44:48;;;;;;;;;;;9.30;76.50;;;;;;5034023;28;20040;-78
2022/04/27 06:47:13;;;;;;;;;;;9.30;76.50;;;;;;5033904;28;19947;-79
2022/04/27 06:49:39;;;;;;;;;;;9.30;77.10;;;;;;5032796;28;19925;-82
2022/04/27 06:52:05;;;;;;;;;;;9.40;77.40;;;;;;5039016;28;19914;-78
2022/04/27 06:54:31;;;;;;;;;;;9.40;75.60;;;;;;5043801;28;19945;-79
2022/04/27 06:56:57;;;;;;;;;;;9.40;75.40;;;;;;5038484;28;19940;-79
2022/04/27 06:59:23;;;;;;;;;;;9.40;75.90;;;;;;5037288;28;19913;-80
2022/04/27 07:01:48;;;;;;;;;;;9.30;75.40;;;;;;5050785;28;19913;-82
2022/04/27 07:04:14;;;;;;;;;;;9.30;76.00;;;;;;5032818;28;20036;-82
2022/04/27 07:06:39;;;;;;;;;;;9.30;76.60;;;;;;5028864;28;19990;-82
2022/04/27 07:09:07;;;;;;;;;;;9.30;75.90;;;;;;5027889;28;19921;-81
2022/04/27 07:11:33;;;;;;;;;;;9.40;77.30;;;;;;5025858;28;20334;-80
2022/04/27 07:13:59;;;;;;;;;;;9.50;76.40;;;;;;5026802;28;19944;-82
2022/04/27 07:16:24;;;;;;;;;;;9.60;76.20;;;;;;5039458;28;19913;-82
2022/04/27 07:18:50;;;;;;;;;;;9.70;74.70;;;;;;5031591;28;19925;-83
2022/04/27 07:21:15;;;;;;;;;;;9.60;74.70;;;;;;5027851;28;19966;-82
2022/04/27 07:23:41;;;;;;;;;;;9.60;75.00;;;;;;5030901;28;20484;-81
2022/04/27 07:26:07;;;;;;;;;;;9.60;75.20;;;;;;5027100;28;19928;-83
2022/04/27 07:28:34;;;;;;;;;;;9.60;75.10;;;;;;5020554;28;19921;-83
2022/04/27 07:30:59;;;;;;;;;;;9.70;74.40;;;;;;5043886;22;19996;-80
2022/04/27 07:33:25;;;;;;;;;;;9.70;75.30;;;;;;5049746;28;19905;-80
2022/04/27 07:35:50;;;;;;;;;;;9.80;75.60;;;;;;5027653;28;19917;-81
2022/04/27 07:38:16;;;;;;;;;;;9.90;73.80;;;;;;5054017;28;19913;-81
2022/04/27 07:40:41;;;;;;;;;;;10.00;73.50;;;;;;5034453;28;19920;-82
2022/04/27 07:43:07;;;;;;;;;;;10.00;73.40;;;;;;5036319;28;19913;-78
2022/04/27 07:45:32;;;;;;;;;;;10.00;74.20;;;;;;5024378;28;19917;-79
2022/04/27 07:47:58;;;;;;;;;;;10.00;73.70;;;;;;5024027;28;19973;-78
2022/04/27 07:50:23;;;;;;;;;;;10.10;73.20;;;;;;5036081;28;19937;-79
2022/04/27 07:52:48;;;;;;;;;;;10.30;75.10;;;;;;5040111;28;19913;-79
2022/04/27 07:55:14;;;;;;;;;;;10.40;74.90;;;;;;5030161;28;20295;-80
2022/04/27 07:57:40;;;;;;;;;;;10.50;74.20;;;;;;5027438;28;20009;-79
2022/04/27 08:00:07;;;;;;;;;;;10.60;72.20;;;;;;5031427;28;19913;-79
2022/04/27 08:02:33;;;;;;;;;;;10.60;72.50;;;;;;5030339;28;20356;-80
2022/04/27 08:04:58;;;;;;;;;;;10.60;72.60;;;;;;5028765;28;19913;-81
2022/04/27 08:07:24;;;;;;;;;;;10.60;71.80;;;;;;5029391;28;20004;-80
2022/04/27 08:09:49;;;;;;;;;;;10.70;72.20;;;;;;5029209;28;19913;-80
2022/04/27 08:12:15;;;;;;;;;;;10.70;71.10;;;;;;5030254;28;19925;-80
2022/04/27 08:14:40;;;;;;;;;;;10.60;71.50;;;;;;5045421;28;19914;-80
2022/04/27 08:17:06;;;;;;;;;;;10.70;71.10;;;;;;5048338;28;19917;-81
2022/04/27 08:19:31;;;;;;;;;;;10.60;70.20;;;;;;5032595;28;19920;-80
2022/04/27 08:21:59;;;;;;;;;;;10.70;70.00;;;;;;5049421;28;19952;-80
2022/04/27 08:24:24;;;;;;;;;;;10.80;69.80;;;;;;5030843;28;19948;-80
2022/04/27 08:26:50;;;;;;;;;;;10.80;70.30;;;;;;5033812;28;20002;-80
2022/04/27 08:29:16;;;;;;;;;;;10.80;68.80;;;;;;5031446;28;19991;-80
2022/04/27 08:31:42;;;;;;;;;;;10.90;68.10;;;;;;5030872;28;20008;-80
2022/04/27 08:34:07;;;;;;;;;;;10.90;68.60;;;;;;5032551;28;19924;-80
2022/04/27 08:36:33;;;;;;;;;;;11.10;69.20;;;;;;5029300;28;19914;-81
2022/04/27 08:38:59;;;;;;;;;;;11.10;67.70;;;;;;5042116;28;20324;-80
2022/04/27 08:41:26;;;;;;;;;;;11.10;65.90;;;;;;5031569;28;19971;-81
2022/04/27 08:43:51;;;;;;;;;;;11.20;65.90;;;;;;5027290;28;19913;-81
2022/04/27 08:46:17;;;;;;;;;;;11.10;63.90;;;;;;5030031;28;19924;-81
2022/04/27 08:48:46;;;;;;;;;;;11.10;64.10;;;;;;5031488;28;19960;-81
2022/04/27 08:51:13;;;;;;;;;;;11.10;63.10;;;;;;5033868;28;20017;-81
2022/04/27 08:53:38;;;;;;;;;;;11.10;62.60;;;;;;5032225;28;19980;-81
2022/04/27 08:56:04;;;;;;;;;;;11.20;62.40;;;;;;5046141;28;19917;-81
2022/04/27 08:58:29;;;;;;;;;;;11.30;64.60;;;;;;5030662;28;20304;-82
2022/04/27 09:00:55;;;;;;;;;;;11.40;64.10;;;;;;5028537;28;19948;-81
2022/04/27 09:03:25;;;;;;;;;;;11.40;62.10;;;;;;5026487;28;19932;-81
2022/04/27 09:05:51;;;;;;;;;;;11.40;65.50;;;;;;5032207;28;19986;-82
2022/04/27 09:08:17;;;;;;;;;;;11.50;63.30;;;;;;5025862;28;20391;-82
2022/04/27 09:10:43;;;;;;;;;;;11.50;61.80;;;;;;5046590;28;20048;-82
2022/04/27 09:13:08;;;;;;;;;;;11.70;65.30;;;;;;5029441;28;19958;-82
2022/04/27 09:15:34;;;;;;;;;;;11.80;65.90;;;;;;5033349;28;19932;-83
2022/04/27 09:20:47;;;;;;;;;;;11.80;62.80;;;;;;5031035;28;19920;-82
2022/04/27 09:23:22;;;;;;;;;;;11.90;63.70;;;;;;5036736;28;19938;-81
2022/04/27 09:25:48;;;;;;;;;;;11.80;63.70;;;;;;5048189;28;19923;-81
2022/04/27 09:28:14;;;;;;;;;;;11.90;60.80;;;;;;5020521;28;19923;-81
2022/04/27 09:30:42;;;;;;;;;;;11.80;61.70;;;;;;5040954;28;20291;-82
2022/04/27 09:33:07;;;;;;;;;;;11.80;61.80;;;;;;5030919;28;20000;-80
2022/04/27 09:35:34;;;;;;;;;;;11.90;63.40;;;;;;5034118;28;19971;-80
2022/04/27 09:38:13;;;;;;;;;;;12.10;61.00;;;;;;5031496;28;20012;-82
2022/04/27 09:40:48;;;;;;;;;;;12.00;60.00;;;;;;5031494;28;19913;-86
2022/04/27 09:43:15;;;;;;;;;;;12.00;62.00;;;;;;5032461;28;19988;-84
2022/04/27 09:45:44;;;;;;;;;;;12.20;62.40;;;;;;5026726;28;19921;-83
2022/04/27 09:48:17;;;;;;;;;;;12.20;64.10;;;;;;5030182;28;19917;-81
2022/04/27 09:50:47;;;;;;;;;;;12.30;59.00;;;;;;5024982;28;19917;-81
2022/04/27 09:53:13;;;;;;;;;;;12.20;58.10;;;;;;5035705;28;19945;-84
2022/04/27 09:55:47;;;;;;;;;;;12.30;59.30;;;;;;5042144;28;20375;-86
2022/04/27 09:58:13;;;;;;;;;;;12.30;59.00;;;;;;5036114;28;19913;-85
2022/04/27 10:00:43;;;;;;;;;;;12.40;61.70;;;;;;5033676;28;19956;-85
2022/04/27 10:03:15;;;;;;;;;;;12.50;60.10;;;;;;5035644;28;20363;-85
2022/04/27 10:05:42;;;;;;;;;;;12.50;58.50;;;;;;5048975;28;19972;-86
2022/04/27 10:08:08;;;;;;;;;;;12.50;58.40;;;;;;5038963;28;20379;-85
2022/04/27 10:10:36;;;;;;;;;;;12.50;59.70;;;;;;5054885;28;19913;-85
2022/04/27 10:16:44;;;;;;;;;;;;;;;;;;;;;
2022/04/27 10:22:56;;;;;;;;;;;12.70;57.20;;;;;;5030246;28;19975;-85
2022/04/27 10:25:31;;;;;;;;;;;12.90;58.70;;;;;;5022222;28;20514;-86
2022/04/27 10:28:05;;;;;;;;;;;12.90;56.10;;;;;;5033966;28;19921;-85
2022/04/27 10:30:50;;;;;;;;;;;12.80;56.50;;;;;;5023309;28;19921;-84
2022/04/27 10:33:53;;;;;;;;;;;12.90;57.50;;;;;;5030811;28;19960;-86
2022/04/27 10:36:47;;;;;;;;;;;13.10;57.60;;;;;;5017421;28;19929;-85
2022/04/27 10:39:43;;;;;;;;;;;13.10;57.90;;;;;;5057700;28;19925;-86
2022/04/27 10:42:15;;;;;;;;;;;13.20;59.10;;;;;;5037591;28;19931;-86
2022/04/27 10:44:58;;;;;;;;;;;13.20;56.70;;;;;;5048310;28;19967;-86
2022/04/27 10:50:49;;;;;;;;;;;13.10;57.40;;;;;;5043534;28;19971;-86
2022/04/27 10:53:56;;;;;;;;;;;;;;;;;;;;;
2022/04/27 10:56:38;;;;;;;;;;;;;;;;;;;;;
2022/04/27 11:02:44;;;;;;;;;;;13.30;55.70;;;;;;5014665;28;19924;-84
2022/04/27 11:05:22;;;;;;;;;;;13.40;55.00;;;;;;5030162;28;19917;-87
2022/04/27 11:07:59;;;;;;;;;;;13.40;55.10;;;;;;5030688;28;20319;-87
2022/04/27 11:10:35;;;;;;;;;;;13.40;57.70;;;;;;5034003;28;19914;-88
2022/04/27 11:13:01;;;;;;;;;;;13.50;61.10;;;;;;5033869;28;19913;-87
2022/04/27 11:15:30;;;;;;;;;;;13.70;59.60;;;;;;5021387;28;19918;-85
2022/04/27 11:18:03;;;;;;;;;;;13.70;55.20;;;;;;5049586;28;19921;-89
2022/04/27 11:20:38;;;;;;;;;;;13.80;57.40;;;;;;5033583;28;19917;-88
2022/04/27 11:25:53;;;;;;;;;;;13.90;56.80;;;;;;5038859;28;19913;-89
2022/04/27 11:28:19;;;;;;;;;;;14.10;59.60;;;;;;5043378;28;19928;-90
2022/04/27 11:30:45;;;;;;;;;;;14.00;55.80;;;;;;5032986;28;19902;-88
2022/04/27 11:33:11;;;;;;;;;;;14.10;54.10;;;;;;5047639;28;19963;-88
2022/04/27 11:35:40;;;;;;;;;;;14.10;54.10;;;;;;5050921;28;20367;-86
2022/04/27 11:38:06;;;;;;;;;;;14.00;54.80;;;;;;5028003;28;20015;-89
2022/04/27 11:40:37;;;;;;;;;;;13.80;53.80;;;;;;5033457;28;19913;-87
2022/04/27 11:43:09;;;;;;;;;;;13.90;55.60;;;;;;5049464;28;19913;-88
2022/04/27 11:45:34;;;;;;;;;;;14.00;54.20;;;;;;5034806;28;20414;-90
2022/04/27 11:48:07;;;;;;;;;;;14.10;54.70;;;;;;5028310;28;19925;-89
2022/04/27 11:50:37;;;;;;;;;;;14.10;55.50;;;;;;5024149;28;20356;-88
2022/04/27 11:53:27;;;;;;;;;;;14.20;53.60;;;;;;5050444;28;19917;-89
2022/04/27 11:55:55;;;;;;;;;;;14.10;52.80;;;;;;5027480;28;19984;-87
2022/04/27 11:58:30;;;;;;;;;;;14.20;53.80;;;;;;5028486;28;19913;-89
2022/04/27 12:00:56;;;;;;;;;;;14.20;53.40;;;;;;5016965;28;20340;-89
2022/04/27 12:03:22;;;;;;;;;;;14.10;53.50;;;;;;5049931;28;19913;-88
2022/04/27 12:05:55;;;;;;;;;;;14.30;52.90;;;;;;5045487;28;20584;-88
2022/04/27 12:08:36;;;;;;;;;;;14.50;53.80;;;;;;5027958;28;19925;-87
2022/04/27 12:11:08;;;;;;;;;;;14.70;54.70;;;;;;5048806;28;19914;-89
2022/04/27 12:13:45;;;;;;;;;;;14.90;56.40;;;;;;5033124;28;19921;-90
2022/04/27 12:16:13;;;;;;;;;;;15.00;53.90;;;;;;5038589;28;19913;-86
2022/04/27 12:18:49;;;;;;;;;;;14.90;52.60;;;;;;5034063;28;20295;-86
2022/04/27 12:21:18;;;;;;;;;;;14.70;52.40;;;;;;5033805;28;19917;-86
2022/04/27 12:23:44;;;;;;;;;;;14.50;52.00;;;;;;5030852;28;19913;-88
2022/04/27 12:26:31;;;;;;;;;;;14.50;52.60;;;;;;5047735;28;19935;-89
2022/04/27 12:29:07;;;;;;;;;;;14.30;53.20;;;;;;5057816;28;19917;-89
2022/04/27 12:31:38;;;;;;;;;;;14.40;55.20;;;;;;5030351;28;19921;-86
2022/04/27 12:37:29;;;;;;;;;;;14.40;54.40;;;;;;5033213;28;19913;-86
2022/04/27 12:39:45;;;;;;;;;;;14.70;56.00;;;;;;5029827;28;19971;-86
2022/04/27 12:42:21;;;;;;;;;;;15.10;56.30;;;;;;5046998;28;19913;-87
2022/04/27 12:44:47;;;;;;;;;;;15.50;53.60;;;;;;5046623;28;19924;-88
2022/04/27 12:47:19;;;;;;;;;;;15.30;51.50;;;;;;5027316;28;20586;-88
2022/04/27 12:53:30;;;;;;;;;;;15.40;50.50;;;;;;5055904;28;19929;-88
2022/04/27 12:56:19;;;;;;;;;;;15.60;51.30;;;;;;5012943;28;20229;-88
2022/04/27 12:59:05;;;;;;;;;;;15.50;51.50;;;;;;4971912;28;20327;-84
2022/04/27 13:02:19;;;;;;;;;;;15.40;51.50;;;;;;4989094;28;19981;-86
2022/04/27 13:04:46;;;;;;;;;;;15.40;51.10;;;;;;4997329;28;20411;-86
2022/04/27 13:07:21;;;;;;;;;;;15.30;49.90;;;;;;4979466;28;19924;-88
2022/04/27 13:12:35;;;;;;;;;;;15.00;50.60;;;;;;4991246;28;19944;-86
2022/04/27 13:15:02;;;;;;;;;;;14.90;51.10;;;;;;4982628;28;19927;-84
2022/04/27 13:17:31;;;;;;;;;;;14.90;51.70;;;;;;5004253;28;19913;-86
2022/04/27 13:20:03;;;;;;;;;;;15.00;52.00;;;;;;5008244;28;20411;-86
2022/04/27 13:22:29;;;;;;;;;;;15.10;50.40;;;;;;4980871;28;19909;-84
2022/04/27 13:24:54;;;;;;;;;;;15.20;51.30;;;;;;4986608;28;20079;-85
2022/04/27 13:27:22;;;;;;;;;;;15.20;51.10;;;;;;4997803;28;20183;-85
2022/04/27 13:29:47;;;;;;;;;;;15.10;50.20;;;;;;5000690;28;20226;-86
2022/04/27 13:32:13;;;;;;;;;;;15.10;51.80;;;;;;4985800;28;20871;-85
2022/04/27 13:34:39;;;;;;;;;;;15.20;51.60;;;;;;4983150;28;20372;-85
2022/04/27 13:37:04;;;;;;;;;;;15.60;52.40;;;;;;4991017;28;20297;-86
2022/04/27 13:39:30;;;;;;;;;;;16.00;49.70;;;;;;4993370;28;20169;-84
2022/04/27 13:41:56;;;;;;;;;;;16.00;52.10;;;;;;4983165;28;20669;-84
2022/04/27 13:44:22;;;;;;;;;;;16.10;54.70;;;;;;4980045;28;20141;-84
2022/04/27 13:46:48;;;;;;;;;;;16.00;53.50;;;;;;4979167;28;19909;-84
2022/04/27 13:49:13;;;;;;;;;;;16.00;54.20;;;;;;4992211;28;20028;-84
2022/04/27 13:51:39;;;;;;;;;;;16.30;52.90;;;;;;4986621;28;20004;-84
2022/04/27 13:54:04;;;;;;;;;;;16.20;50.20;;;;;;4992498;28;20049;-83
2022/04/27 13:56:30;;;;;;;;;;;16.00;49.50;;;;;;5003281;28;19923;-85
2022/04/27 13:58:55;;;;;;;;;;;15.90;50.20;;;;;;5001543;28;20207;-85
2022/04/27 14:01:21;;;;;;;;;;;16.00;50.30;;;;;;5010673;28;19909;-86
2022/04/27 14:03:47;;;;;;;;;;;16.00;50.10;;;;;;5024237;28;20409;-89
2022/04/27 14:06:12;;;;;;;;;;;15.90;50.20;;;;;;5028176;28;20304;-89
2022/04/27 14:08:38;;;;;;;;;;;15.70;49.90;;;;;;5038147;28;20017;-88
2022/04/27 14:11:03;;;;;;;;;;;15.50;50.00;;;;;;5014935;28;19909;-85
2022/04/27 14:13:29;;;;;;;;;;;15.50;49.90;;;;;;4991327;28;19932;-85
2022/04/27 14:18:40;;;;;;;;;;;15.30;50.40;;;;;;4994789;28;19992;-87
2022/04/27 14:21:06;;;;;;;;;;;15.30;51.50;;;;;;4997019;28;19930;-86
2022/04/27 14:23:32;;;;;;;;;;;15.20;50.10;;;;;;5001166;28;20019;-85
2022/04/27 14:25:58;;;;;;;;;;;15.30;52.30;;;;;;4988463;28;20063;-84
2022/04/27 14:28:25;;;;;;;;;;;15.30;51.00;;;;;;4976918;28;20439;-86
2022/04/27 14:30:51;;;;;;;;;;;15.30;52.80;;;;;;4970175;28;20127;-85
2022/04/27 14:33:21;;;;;;;;;;;15.40;54.20;;;;;;4981202;28;20424;-86
2022/04/27 14:35:47;;;;;;;;;;;15.60;53.20;;;;;;4998895;28;20280;-85
2022/04/27 14:38:13;;;;;;;;;;;15.90;54.40;;;;;;5004068;28;20062;-84
2022/04/27 14:40:39;;;;;;;;;;;16.10;49.90;;;;;;4976255;28;19909;-86
2022/04/27 14:43:07;;;;;;;;;;;16.10;49.20;;;;;;4969642;28;20191;-85
2022/04/27 14:45:34;;;;;;;;;;;16.10;49.40;;;;;;4979788;28;19931;-84
2022/04/27 14:48:00;;;;;;;;;;;16.10;48.50;;;;;;4986270;28;19914;-85
2022/04/27 14:50:25;;;;;;;;;;;16.00;49.70;;;;;;4970901;28;20742;-84
2022/04/27 14:52:51;;;;;;;;;;;16.00;50.30;;;;;;4996132;28;20198;-87
2022/04/27 14:55:17;;;;;;;;;;;15.90;51.30;;;;;;5007780;28;19913;-86
2022/04/27 14:57:42;;;;;;;;;;;16.00;50.80;;;;;;5005811;28;20020;-83
2022/04/27 15:00:08;;;;;;;;;;;15.90;51.10;;;;;;4986198;28;20720;-86
2022/04/27 15:02:34;;;;;;;;;;;15.90;49.10;;;;;;4997924;28;20091;-83
2022/04/27 15:05:00;;;;;;;;;;;16.00;51.10;;;;;;4995732;28;20430;-86
2022/04/27 15:07:32;;;;;;;;;;;15.90;52.20;;;;;;5002403;28;20062;-94
2022/04/27 15:10:14;;;;;;;;;;;15.90;50.70;;;;;;5007772;28;19924;-90
2022/04/27 15:19:10;;;;;;;;;;;16.40;48.10;;;;;;4973356;28;19921;-89
2022/04/27 15:24:30;;;;;;;;;;;16.30;48.40;;;;;;4984502;28;19929;-90
2022/04/27 15:27:08;;;;;;;;;;;16.30;48.00;;;;;;5005215;28;19909;-91